Time;durP1;ratioP1;P1;durP2;ratioP2;P2;SDS_P1;SDS_P2;PMS_P1;PMS_P2;Temp;Humidity;BMP_temperature;BMP_pressure;BME280_temperature;BME280_humidity;BME280_pressure;Samples;Min_cycle;Max_cycle;Signal;HPM_P1;HPM_P2
2023/12/05 00:01:07;;;;;;;15.60;10.82;;;0.80;99.90;;;;;;5092785;28;20051;-75
2023/12/05 00:03:35;;;;;;;17.23;11.40;;;0.80;99.90;;;;;;5099775;27;20397;-75
2023/12/05 00:06:01;;;;;;;17.45;11.75;;;0.80;99.90;;;;;;5089816;28;20042;-76
2023/12/05 00:08:26;;;;;;;16.05;11.40;;;0.70;99.90;;;;;;5090219;27;20126;-75
2023/12/05 00:10:52;;;;;;;16.67;11.77;;;0.70;99.90;;;;;;5111679;27;20079;-75
2023/12/05 00:13:18;;;;;;;18.88;11.90;;;0.70;99.90;;;;;;5102048;27;20028;-76
2023/12/05 00:15:43;;;;;;;17.05;11.18;;;0.70;99.90;;;;;;5093271;28;20490;-75
2023/12/05 00:18:09;;;;;;;16.20;11.38;;;0.70;99.90;;;;;;5116717;27;20106;-75
2023/12/05 00:20:35;;;;;;;17.00;11.50;;;0.70;99.90;;;;;;5109005;27;20080;-75
2023/12/05 00:23:01;;;;;;;17.50;12.40;;;0.70;99.90;;;;;;5084846;28;20494;-75
2023/12/05 00:25:26;;;;;;;16.70;11.85;;;0.60;99.90;;;;;;5106360;27;20047;-75
2023/12/05 00:27:52;;;;;;;16.33;11.70;;;0.60;99.90;;;;;;5103945;28;20483;-75
2023/12/05 00:30:18;;;;;;;17.58;11.38;;;0.60;99.90;;;;;;5109762;28;20495;-74
2023/12/05 00:32:43;;;;;;;18.23;11.20;;;0.60;99.90;;;;;;5096176;28;20032;-75
2023/12/05 00:35:09;;;;;;;16.17;9.90;;;0.60;99.90;;;;;;5094541;28;20424;-75
2023/12/05 00:37:35;;;;;;;13.05;9.07;;;0.60;99.90;;;;;;5111990;27;20055;-75
2023/12/05 00:40:02;;;;;;;18.63;11.27;;;0.50;99.90;;;;;;5108560;28;20122;-75
2023/12/05 00:42:28;;;;;;;17.73;11.48;;;0.50;99.90;;;;;;5123924;28;20035;-75
2023/12/05 00:44:53;;;;;;;16.05;11.07;;;0.50;99.90;;;;;;5129149;28;20050;-75
2023/12/05 00:47:19;;;;;;;16.10;11.60;;;0.60;99.90;;;;;;5097264;28;20043;-75
2023/12/05 00:49:45;;;;;;;17.08;11.77;;;0.50;99.90;;;;;;5125739;28;20431;-75
2023/12/05 00:52:10;;;;;;;16.58;11.90;;;0.50;99.90;;;;;;5109686;28;20038;-75
2023/12/05 00:54:36;;;;;;;17.27;11.77;;;0.50;99.90;;;;;;5091510;28;20059;-75
2023/12/05 00:57:02;;;;;;;16.77;11.75;;;0.50;99.90;;;;;;5121701;28;20524;-75
2023/12/05 00:59:27;;;;;;;18.65;11.82;;;0.50;99.90;;;;;;5093066;28;20512;-76
2023/12/05 01:01:53;;;;;;;17.58;12.30;;;0.50;99.90;;;;;;5110918;28;20479;-75
2023/12/05 01:04:19;;;;;;;18.33;12.45;;;0.50;99.90;;;;;;5126183;28;20043;-75
2023/12/05 01:06:44;;;;;;;16.45;11.15;;;0.50;99.90;;;;;;5110778;28;20043;-75
2023/12/05 01:09:10;;;;;;;17.95;11.80;;;0.50;99.90;;;;;;5114730;28;20035;-75
2023/12/05 01:11:37;;;;;;;19.73;12.75;;;0.50;99.90;;;;;;5105505;28;20059;-75
2023/12/05 01:14:03;;;;;;;20.45;13.38;;;0.50;99.90;;;;;;5096239;28;20050;-75
2023/12/05 01:16:29;;;;;;;18.42;12.45;;;0.50;99.90;;;;;;5120165;28;20107;-75
2023/12/05 01:18:54;;;;;;;18.85;12.70;;;0.50;99.90;;;;;;5108711;28;20036;-75
2023/12/05 01:21:20;;;;;;;19.60;13.20;;;0.40;99.90;;;;;;5086638;28;20046;-74
2023/12/05 01:23:45;;;;;;;19.75;13.10;;;0.40;99.90;;;;;;5090951;28;20090;-75
2023/12/05 01:26:11;;;;;;;19.73;12.80;;;0.40;99.90;;;;;;5107557;28;20040;-75
2023/12/05 01:28:37;;;;;;;20.00;13.65;;;0.40;99.90;;;;;;5091857;27;20048;-75
2023/12/05 01:31:03;;;;;;;18.58;12.77;;;0.40;99.90;;;;;;5121393;27;20114;-75
2023/12/05 01:33:28;;;;;;;20.73;13.48;;;0.40;99.90;;;;;;5104984;27;20119;-75
2023/12/05 01:35:54;;;;;;;20.58;13.38;;;0.40;99.90;;;;;;5105869;27;20443;-75
2023/12/05 01:38:20;;;;;;;20.33;13.90;;;0.40;99.90;;;;;;5132554;27;20062;-74
2023/12/05 01:40:46;;;;;;;20.45;13.65;;;0.40;99.90;;;;;;5113854;27;20036;-74
2023/12/05 01:43:11;;;;;;;19.35;12.70;;;0.40;99.90;;;;;;5092419;28;20499;-74
2023/12/05 01:45:37;;;;;;;19.25;12.43;;;0.40;99.90;;;;;;5104017;28;20070;-74
2023/12/05 01:48:04;;;;;;;18.73;12.68;;;0.40;99.90;;;;;;5112040;27;20500;-75
2023/12/05 01:50:31;;;;;;;20.02;13.43;;;0.40;99.90;;;;;;5107094;28;20031;-74
2023/12/05 01:53:02;;;;;;;19.63;13.55;;;0.40;99.90;;;;;;5080122;28;20221;-74
2023/12/05 01:55:29;;;;;;;18.35;12.38;;;0.40;99.90;;;;;;5110314;27;20032;-75
2023/12/05 01:57:55;;;;;;;;;;;0.40;99.90;;;;;;5108872;28;20035;-74
2023/12/05 02:00:23;;;;;;;19.25;12.98;;;0.40;99.90;;;;;;5105608;27;20064;-75
2023/12/05 02:02:49;;;;;;;19.67;13.80;;;0.40;99.90;;;;;;5114364;27;20042;-74
2023/12/05 02:05:15;;;;;;;21.90;14.55;;;0.40;99.90;;;;;;5131379;27;20107;-74
2023/12/05 02:07:41;;;;;;;19.33;14.20;;;0.40;99.90;;;;;;5113890;27;20036;-74
2023/12/05 02:10:09;;;;;;;18.95;13.32;;;0.40;99.90;;;;;;5107388;27;20042;-74
2023/12/05 02:12:38;;;;;;;18.70;13.63;;;0.40;99.90;;;;;;5078604;28;20036;-74
2023/12/05 02:15:05;;;;;;;19.13;13.30;;;0.40;99.90;;;;;;5100922;27;20500;-74
2023/12/05 02:17:35;;;;;;;19.27;13.95;;;0.40;99.90;;;;;;5116867;27;20143;-81
2023/12/05 02:20:12;;;;;;;20.08;13.32;;;0.40;99.90;;;;;;5111867;27;20031;-81
2023/12/05 02:22:43;;;;;;;19.35;13.52;;;0.40;99.90;;;;;;5100028;27;20141;-81
2023/12/05 02:25:13;;;;;;;21.42;14.02;;;0.30;99.90;;;;;;5112052;27;20051;-82
2023/12/05 02:27:41;;;;;;;21.17;14.23;;;0.30;99.90;;;;;;5103464;27;20047;-74
2023/12/05 02:30:09;;;;;;;22.15;14.20;;;0.30;99.90;;;;;;5102307;27;20406;-75
2023/12/05 02:32:35;;;;;;;21.20;14.40;;;0.30;99.90;;;;;;5094220;28;20048;-75
2023/12/05 02:35:05;;;;;;;20.27;13.90;;;0.30;99.90;;;;;;5095537;27;20046;-74
2023/12/05 02:37:57;;;;;;;20.55;13.32;;;0.30;99.90;;;;;;5114986;27;20036;-75
2023/12/05 02:40:34;;;;;;;22.15;13.82;;;0.40;99.90;;;;;;5112059;27;20121;-74
2023/12/05 02:43:07;;;;;;;20.48;13.32;;;0.30;99.90;;;;;;5115389;27;20092;-75
2023/12/05 02:45:34;;;;;;;21.65;13.40;;;0.30;99.90;;;;;;5109894;28;20394;-75
2023/12/05 02:48:02;;;;;;;19.38;13.50;;;0.30;99.90;;;;;;5099960;27;20052;-75
2023/12/05 02:50:28;;;;;;;19.88;14.38;;;0.40;99.90;;;;;;5129501;27;20052;-75
2023/12/05 02:52:54;;;;;;;20.92;13.95;;;0.30;99.90;;;;;;5087081;27;20112;-74
2023/12/05 02:55:19;;;;;;;20.60;14.18;;;0.30;99.90;;;;;;5085566;28;20664;-74
2023/12/05 02:57:45;;;;;;;19.42;13.43;;;0.30;99.90;;;;;;5101518;28;20040;-74
2023/12/05 03:00:12;;;;;;;19.70;14.15;;;0.30;99.90;;;;;;5089033;28;20123;-75
2023/12/05 03:02:37;;;;;;;20.00;13.93;;;0.30;99.90;;;;;;5103630;27;20047;-74
2023/12/05 03:05:03;;;;;;;23.73;15.43;;;0.30;99.90;;;;;;5128877;27;20046;-75
2023/12/05 03:07:29;;;;;;;21.38;14.57;;;0.30;99.90;;;;;;5126102;27;20039;-74
2023/12/05 03:09:55;;;;;;;19.98;13.77;;;0.30;99.90;;;;;;5103941;27;20053;-75
2023/12/05 03:12:21;;;;;;;16.95;11.82;;;0.30;99.90;;;;;;5105847;28;20055;-74
2023/12/05 03:14:46;;;;;;;21.85;15.40;;;0.30;99.90;;;;;;5104551;27;20065;-74
2023/12/05 03:17:12;;;;;;;20.60;13.88;;;0.30;99.90;;;;;;5104066;27;20046;-75
2023/12/05 03:19:38;;;;;;;19.08;13.50;;;0.30;99.90;;;;;;5094450;27;20043;-74
2023/12/05 03:22:04;;;;;;;21.15;15.55;;;0.30;99.90;;;;;;5111716;27;20390;-74
2023/12/05 03:24:29;;;;;;;22.40;15.07;;;0.30;99.90;;;;;;5076770;28;20040;-75
2023/12/05 03:26:55;;;;;;;20.95;14.88;;;0.30;99.90;;;;;;5114244;27;20043;-74
2023/12/05 03:29:21;;;;;;;19.88;14.18;;;0.30;99.90;;;;;;5090796;28;20056;-74
2023/12/05 03:31:47;;;;;;;23.85;15.15;;;0.30;99.90;;;;;;5080308;28;20392;-74
2023/12/05 03:34:12;;;;;;;20.08;14.95;;;0.30;99.90;;;;;;5093040;28;20107;-74
2023/12/05 03:36:38;;;;;;;22.02;15.27;;;0.30;99.90;;;;;;5094748;27;20071;-74
2023/12/05 03:39:05;;;;;;;19.25;14.35;;;0.30;99.90;;;;;;5110337;27;20387;-74
2023/12/05 03:41:31;;;;;;;22.23;15.43;;;0.30;99.90;;;;;;5094226;27;20483;-74
2023/12/05 03:43:56;;;;;;;22.30;16.30;;;0.30;99.90;;;;;;5111548;27;20036;-74
2023/12/05 03:46:22;;;;;;;22.15;15.55;;;0.30;99.90;;;;;;5091803;28;20039;-74
2023/12/05 03:48:48;;;;;;;19.95;13.93;;;0.30;99.90;;;;;;5106305;27;20155;-74
2023/12/05 03:51:13;;;;;;;22.88;15.88;;;0.30;99.90;;;;;;5093211;28;20133;-74
2023/12/05 03:53:39;;;;;;;22.45;15.38;;;0.30;99.90;;;;;;5094366;27;20047;-74
2023/12/05 03:56:05;;;;;;;23.40;16.13;;;0.20;99.90;;;;;;5095180;28;20042;-74
2023/12/05 03:58:31;;;;;;;20.77;14.02;;;0.30;99.90;;;;;;5120765;27;20474;-74
2023/12/05 04:00:57;;;;;;;21.75;14.90;;;0.30;99.90;;;;;;5129181;27;20042;-74
2023/12/05 04:03:22;;;;;;;23.05;15.93;;;0.30;99.90;;;;;;5095262;28;20040;-74
2023/12/05 04:05:48;;;;;;;21.08;14.90;;;0.30;99.90;;;;;;5102299;27;20035;-74
2023/12/05 04:08:14;;;;;;;24.08;15.13;;;0.30;99.90;;;;;;5122910;27;20118;-74
2023/12/05 04:10:39;;;;;;;19.83;13.98;;;0.30;99.90;;;;;;5121902;27;20043;-74
2023/12/05 04:13:05;;;;;;;22.13;15.35;;;0.30;99.90;;;;;;5126873;27;20042;-74
2023/12/05 04:15:31;;;;;;;21.23;14.48;;;0.30;99.90;;;;;;5110489;27;20035;-74
2023/12/05 04:17:56;;;;;;;20.30;13.40;;;0.30;99.90;;;;;;5109326;28;20040;-75
2023/12/05 04:20:22;;;;;;;22.23;15.02;;;0.20;99.90;;;;;;5077763;28;20052;-75
2023/12/05 04:22:48;;;;;;;21.88;15.25;;;0.20;99.90;;;;;;5107494;28;20505;-75
2023/12/05 04:25:14;;;;;;;23.67;16.05;;;0.20;99.90;;;;;;5093393;27;20495;-75
2023/12/05 04:27:39;;;;;;;23.98;16.48;;;0.20;99.90;;;;;;5111651;27;20495;-75
2023/12/05 04:30:06;;;;;;;21.80;15.32;;;0.20;99.90;;;;;;5093512;27;20055;-75
2023/12/05 04:32:32;;;;;;;22.55;15.00;;;0.20;99.90;;;;;;5106344;27;20035;-75
2023/12/05 04:34:58;;;;;;;21.52;14.70;;;0.20;99.90;;;;;;5093350;28;20391;-75
2023/12/05 04:37:23;;;;;;;23.92;16.20;;;0.20;99.90;;;;;;5075321;28;20043;-75
2023/12/05 04:39:49;;;;;;;24.55;15.43;;;0.20;99.90;;;;;;5086853;28;20398;-76
2023/12/05 04:42:15;;;;;;;21.67;15.25;;;0.20;99.90;;;;;;5122211;27;20099;-76
2023/12/05 04:44:40;;;;;;;23.25;14.98;;;0.20;99.90;;;;;;5118673;28;20039;-75
2023/12/05 04:47:06;;;;;;;23.42;15.70;;;0.20;99.90;;;;;;5111414;28;20042;-75
2023/12/05 04:49:33;;;;;;;24.17;15.80;;;0.20;99.90;;;;;;5116455;28;20127;-76
2023/12/05 04:51:59;;;;;;;20.73;14.93;;;0.20;99.90;;;;;;5074057;28;20391;-76
2023/12/05 04:54:24;;;;;;;22.13;15.80;;;0.20;99.90;;;;;;5107927;28;20039;-75
2023/12/05 04:56:50;;;;;;;21.55;15.10;;;0.20;99.90;;;;;;5104208;28;20044;-76
2023/12/05 04:59:16;;;;;;;23.33;15.52;;;0.20;99.90;;;;;;5111308;28;20035;-75
2023/12/05 05:01:41;;;;;;;23.30;15.90;;;0.20;99.90;;;;;;5081037;28;20086;-76
2023/12/05 05:04:07;;;;;;;20.52;14.05;;;0.20;99.90;;;;;;5102542;28;20422;-76
2023/12/05 05:06:33;;;;;;;22.60;15.60;;;0.20;99.90;;;;;;5081746;28;20139;-75
2023/12/05 05:08:58;;;;;;;24.52;16.08;;;0.20;99.90;;;;;;5102409;27;20047;-76
2023/12/05 05:11:24;;;;;;;20.97;15.03;;;0.20;99.90;;;;;;5107965;27;20037;-77
2023/12/05 05:13:50;;;;;;;21.85;14.88;;;0.20;99.90;;;;;;5114247;27;20771;-76
2023/12/05 05:16:15;;;;;;;22.17;15.32;;;0.20;99.90;;;;;;5108850;27;20110;-76
2023/12/05 05:18:41;;;;;;;23.05;15.07;;;0.30;99.90;;;;;;5101376;27;20036;-75
2023/12/05 05:21:07;;;;;;;22.83;15.85;;;0.20;99.90;;;;;;5087186;28;20051;-76
2023/12/05 05:23:33;;;;;;;23.30;15.18;;;0.30;99.90;;;;;;5089037;28;20487;-76
2023/12/05 05:25:59;;;;;;;20.58;14.07;;;0.30;99.90;;;;;;5107241;27;20584;-76
2023/12/05 05:28:25;;;;;;;22.40;14.95;;;0.30;99.90;;;;;;5115598;27;20126;-75
2023/12/05 05:30:54;;;;;;;22.30;14.98;;;0.30;99.90;;;;;;5093786;28;20048;-74
2023/12/05 05:33:21;;;;;;;20.75;14.55;;;0.30;99.90;;;;;;5096591;28;20079;-74
2023/12/05 05:35:47;;;;;;;21.08;14.18;;;0.30;99.90;;;;;;5110644;28;20100;-75
2023/12/05 05:38:13;;;;;;;20.52;14.35;;;0.30;99.90;;;;;;5068865;28;20040;-75
2023/12/05 05:40:40;;;;;;;20.80;14.43;;;0.30;99.90;;;;;;5113376;27;20467;-76
2023/12/05 05:43:06;;;;;;;20.67;14.60;;;0.30;99.90;;;;;;5112221;27;20122;-76
2023/12/05 05:45:31;;;;;;;23.98;16.38;;;0.30;99.90;;;;;;5112306;27;20973;-76
2023/12/05 05:47:57;;;;;;;23.65;16.00;;;0.30;99.90;;;;;;5113171;27;20043;-76
2023/12/05 05:50:23;;;;;;;21.98;14.13;;;0.20;99.90;;;;;;5124081;27;20147;-76
2023/12/05 05:52:48;;;;;;;22.35;15.45;;;0.20;99.90;;;;;;5111723;28;20102;-76
2023/12/05 05:55:14;;;;;;;25.30;15.30;;;0.30;99.90;;;;;;5077618;28;20123;-76
2023/12/05 05:57:40;;;;;;;21.35;14.55;;;0.20;99.90;;;;;;5113966;27;20048;-76
2023/12/05 06:00:06;;;;;;;22.23;15.27;;;0.30;99.90;;;;;;5114390;27;20067;-76
2023/12/05 06:02:32;;;;;;;23.33;15.00;;;0.20;99.90;;;;;;5117908;27;20050;-76
2023/12/05 06:04:57;;;;;;;24.25;15.70;;;0.30;99.90;;;;;;5094655;28;20040;-76
2023/12/05 06:07:23;;;;;;;23.02;15.02;;;0.30;99.90;;;;;;5118629;27;20035;-76
2023/12/05 06:09:49;;;;;;;23.98;16.45;;;0.20;99.90;;;;;;5108091;27;20138;-76
2023/12/05 06:12:15;;;;;;;24.27;15.70;;;0.30;99.90;;;;;;5100448;27;20039;-76
2023/12/05 06:14:41;;;;;;;21.42;15.00;;;0.20;99.90;;;;;;5130214;27;20394;-76
2023/12/05 06:17:06;;;;;;;23.42;16.10;;;0.20;99.90;;;;;;5112224;27;20071;-76
2023/12/05 06:19:32;;;;;;;24.40;16.30;;;0.20;99.90;;;;;;5094731;27;20035;-76
2023/12/05 06:21:58;;;;;;;25.00;16.08;;;0.30;99.90;;;;;;5093532;28;20040;-76
2023/12/05 06:24:24;;;;;;;21.35;14.75;;;0.20;99.90;;;;;;5108457;27;20039;-76
2023/12/05 06:26:49;;;;;;;21.45;13.93;;;0.30;99.90;;;;;;5127647;27;20051;-76
2023/12/05 06:29:15;;;;;;;23.92;14.82;;;0.20;99.90;;;;;;5114111;27;20517;-78
2023/12/05 06:31:41;;;;;;;21.58;14.70;;;0.20;99.90;;;;;;5125357;27;20046;-78
2023/12/05 06:34:06;;;;;;;24.40;15.77;;;0.30;99.90;;;;;;5093963;27;20067;-77
2023/12/05 06:36:32;;;;;;;23.13;14.63;;;0.20;99.90;;;;;;5097225;27;20031;-77
2023/12/05 06:39:02;;;;;;;24.38;16.10;;;0.20;99.90;;;;;;5094592;28;20097;-77
2023/12/05 06:41:28;;;;;;;23.88;15.50;;;0.20;99.90;;;;;;5086156;27;20043;-77
2023/12/05 06:43:54;;;;;;;23.98;15.68;;;0.20;99.90;;;;;;5122085;27;20490;-78
2023/12/05 06:46:19;;;;;;;23.65;15.02;;;0.20;99.90;;;;;;5105957;28;20131;-78
2023/12/05 06:48:46;;;;;;;24.38;16.00;;;0.20;99.90;;;;;;5106046;27;20073;-78
2023/12/05 06:51:22;;;;;;;25.08;16.23;;;0.20;99.90;;;;;;5117797;27;20100;-78
2023/12/05 06:53:47;;;;;;;23.27;15.25;;;0.20;99.90;;;;;;5075835;28;20047;-78
2023/12/05 06:56:15;;;;;;;24.13;15.73;;;0.20;99.90;;;;;;5104841;28;20114;-76
2023/12/05 06:58:41;;;;;;;22.38;14.98;;;0.20;99.90;;;;;;5091415;28;20036;-76
2023/12/05 07:01:07;;;;;;;;;;;0.20;99.90;;;;;;5105963;27;20513;-76
2023/12/05 07:03:33;;;;;;;24.13;15.15;;;0.20;99.90;;;;;;5134253;27;19924;-76
2023/12/05 07:05:59;;;;;;;23.88;16.15;;;0.20;99.90;;;;;;5120719;27;20046;-76
2023/12/05 07:08:24;;;;;;;24.20;15.90;;;0.20;99.90;;;;;;5094167;28;20040;-78
2023/12/05 07:10:50;;;;;;;27.40;17.08;;;0.20;99.90;;;;;;5109814;27;20379;-78
2023/12/05 07:13:16;;;;;;;24.52;15.93;;;0.20;99.90;;;;;;5117644;27;20100;-78
2023/12/05 07:15:42;;;;;;;18.83;12.13;;;0.20;99.90;;;;;;5116382;27;20368;-78
2023/12/05 07:18:08;;;;;;;24.98;16.48;;;0.20;99.90;;;;;;5122468;27;20047;-78
2023/12/05 07:20:34;;;;;;;24.20;16.02;;;0.20;99.90;;;;;;5108813;27;20080;-78
2023/12/05 07:23:00;;;;;;;24.33;15.68;;;0.20;99.90;;;;;;5083393;28;20079;-78
2023/12/05 07:25:26;;;;;;;23.63;15.82;;;0.20;99.90;;;;;;5109583;28;20148;-79
2023/12/05 07:27:52;;;;;;;25.23;15.48;;;0.20;99.90;;;;;;5098683;27;20073;-79
2023/12/05 07:30:17;;;;;;;26.33;16.60;;;0.20;99.90;;;;;;5077024;28;20499;-79
2023/12/05 07:32:43;;;;;;;27.90;16.80;;;0.20;99.90;;;;;;5092390;28;20051;-79
2023/12/05 07:35:09;;;;;;;25.17;16.55;;;0.20;99.90;;;;;;5113175;27;20084;-79
2023/12/05 07:37:35;;;;;;;25.90;16.27;;;0.10;99.90;;;;;;5106837;28;20503;-77
2023/12/05 07:40:01;;;;;;;25.98;17.00;;;0.20;99.90;;;;;;5092476;28;20044;-78
2023/12/05 07:42:26;;;;;;;24.58;16.15;;;0.20;99.90;;;;;;5108420;28;20035;-77
2023/12/05 07:44:52;;;;;;;23.63;15.50;;;0.20;99.90;;;;;;5089287;27;20044;-78
2023/12/05 07:47:18;;;;;;;23.13;15.18;;;0.30;99.90;;;;;;5110006;27;20036;-77
2023/12/05 07:49:46;;;;;;;26.02;16.77;;;0.30;99.90;;;;;;5106342;27;20089;-77
2023/12/05 07:52:12;;;;;;;26.00;17.00;;;0.30;99.90;;;;;;5113451;27;20039;-77
2023/12/05 07:54:38;;;;;;;23.55;15.57;;;0.30;99.90;;;;;;5109940;28;20043;-77
2023/12/05 07:57:04;;;;;;;23.35;15.27;;;0.30;99.90;;;;;;5108015;27;20045;-78
2023/12/05 07:59:29;;;;;;;25.20;16.77;;;0.20;99.90;;;;;;5111785;27;20035;-78
2023/12/05 08:01:55;;;;;;;25.95;15.75;;;0.30;99.90;;;;;;5124499;27;20062;-77
2023/12/05 08:04:21;;;;;;;26.05;16.88;;;0.30;99.90;;;;;;5111760;27;20038;-77
2023/12/05 08:06:50;;;;;;;26.63;16.83;;;0.30;99.90;;;;;;5117336;27;20085;-77
2023/12/05 08:09:16;;;;;;;25.75;16.75;;;0.40;99.90;;;;;;5093808;28;20039;-78
2023/12/05 08:11:42;;;;;;;29.80;17.40;;;0.30;99.90;;;;;;5108955;27;20036;-77
2023/12/05 08:14:08;;;;;;;27.67;17.75;;;0.40;99.90;;;;;;5104518;27;20043;-78
2023/12/05 08:16:33;;;;;;;24.23;15.93;;;0.40;99.90;;;;;;5123550;27;20100;-78
2023/12/05 08:18:59;;;;;;;24.13;16.35;;;0.40;99.90;;;;;;5112215;27;20474;-78
2023/12/05 08:21:25;;;;;;;23.25;16.65;;;0.30;99.90;;;;;;5118286;27;20477;-78
2023/12/05 08:23:51;;;;;;;25.40;16.48;;;0.40;99.90;;;;;;5120764;27;20043;-78
2023/12/05 08:26:17;;;;;;;26.98;17.30;;;0.40;99.90;;;;;;5090848;27;20085;-79
2023/12/05 08:28:43;;;;;;;25.13;17.33;;;0.40;99.90;;;;;;5109202;27;20043;-78
2023/12/05 08:31:08;;;;;;;28.80;17.27;;;0.40;99.90;;;;;;5096945;28;20509;-78
2023/12/05 08:33:34;;;;;;;28.15;18.02;;;0.40;99.90;;;;;;5079960;28;20146;-78
2023/12/05 08:36:01;;;;;;;26.67;16.27;;;0.40;99.90;;;;;;5122550;27;20035;-77
2023/12/05 08:38:26;;;;;;;24.63;16.25;;;0.50;99.90;;;;;;5113082;27;20039;-77
2023/12/05 08:40:52;;;;;;;27.77;17.95;;;0.50;99.90;;;;;;5109384;28;20115;-77
2023/12/05 08:43:18;;;;;;;27.98;18.17;;;0.50;99.90;;;;;;5091044;28;20549;-77
2023/12/05 08:45:44;;;;;;;24.65;16.88;;;0.50;99.90;;;;;;5107884;28;20039;-77
2023/12/05 08:48:10;;;;;;;27.95;17.45;;;0.50;99.90;;;;;;5122028;28;20142;-79
2023/12/05 08:50:36;;;;;;;26.02;16.70;;;0.40;99.90;;;;;;5115259;28;20461;-79
2023/12/05 08:53:02;;;;;;;29.13;19.10;;;0.50;99.90;;;;;;5118487;28;20034;-79
2023/12/05 08:55:28;;;;;;;;;;;0.50;99.90;;;;;;5109154;28;20054;-80
2023/12/05 08:57:55;;;;;;;30.05;18.95;;;0.50;99.90;;;;;;5107617;28;19916;-80
2023/12/05 09:00:21;;;;;;;25.40;17.83;;;0.50;99.90;;;;;;5085818;28;20040;-80
2023/12/05 09:02:47;;;;;;;24.42;16.80;;;0.50;99.90;;;;;;5118761;28;20100;-79
2023/12/05 09:05:12;;;;;;;27.67;17.67;;;0.50;99.90;;;;;;5099916;28;20036;-80
2023/12/05 09:07:39;;;;;;;27.05;17.77;;;0.50;99.90;;;;;;5098167;28;20051;-80
2023/12/05 09:10:05;;;;;;;;;;;0.60;99.90;;;;;;5113415;28;20039;-78
2023/12/05 09:12:30;;;;;;;24.80;16.67;;;0.60;99.90;;;;;;5107900;28;20063;-79
2023/12/05 09:14:56;;;;;;;25.27;17.13;;;0.60;99.90;;;;;;5057260;28;20035;-79
2023/12/05 09:17:22;;;;;;;24.40;16.65;;;0.60;99.90;;;;;;5118611;28;20035;-80
2023/12/05 09:19:50;;;;;;;26.02;17.00;;;0.70;99.90;;;;;;5106764;28;20040;-79
2023/12/05 09:22:17;;;;;;;25.77;17.20;;;0.60;99.90;;;;;;5089989;28;20043;-80
2023/12/05 09:24:42;;;;;;;;;;;0.70;99.90;;;;;;5096322;28;20475;-79
2023/12/05 09:27:08;;;;;;;25.75;16.52;;;0.60;99.90;;;;;;5092549;28;19916;-79
2023/12/05 09:29:33;;;;;;;27.30;17.23;;;0.70;99.90;;;;;;5090666;28;20427;-81
2023/12/05 09:31:59;;;;;;;25.02;16.83;;;0.60;99.90;;;;;;5109346;28;20052;-80
2023/12/05 09:34:25;;;;;;;25.33;16.02;;;0.70;99.90;;;;;;5080518;28;20040;-81
2023/12/05 09:36:50;;;;;;;24.42;16.48;;;0.70;99.90;;;;;;5091725;28;20047;-81
2023/12/05 09:39:16;;;;;;;26.05;16.85;;;0.70;99.90;;;;;;5096160;28;20054;-82
2023/12/05 09:41:50;;;;;;;24.15;16.52;;;0.70;99.90;;;;;;5091332;28;20051;-81
2023/12/05 09:44:21;;;;;;;28.40;17.70;;;0.70;99.90;;;;;;5092212;28;20035;-77
2023/12/05 09:46:51;;;;;;;26.88;17.55;;;0.70;99.90;;;;;;5089151;28;20533;-81
2023/12/05 09:49:19;;;;;;;27.92;18.25;;;0.70;99.90;;;;;;5109905;28;20035;-81
2023/12/05 09:51:46;;;;;;;26.98;18.00;;;0.70;99.90;;;;;;5076938;27;20054;-81
2023/12/05 09:54:13;;;;;;;24.65;16.52;;;0.70;99.90;;;;;;5102907;27;20466;-81
2023/12/05 09:56:39;;;;;;;27.48;17.77;;;0.80;99.90;;;;;;5104129;27;20046;-81
2023/12/05 09:59:05;;;;;;;23.67;16.33;;;0.80;99.90;;;;;;5111336;27;20046;-80
2023/12/05 10:01:35;;;;;;;24.60;16.92;;;0.80;99.90;;;;;;5104117;28;20046;-80
2023/12/05 10:04:01;;;;;;;24.90;16.92;;;0.90;99.90;;;;;;5135921;27;20047;-79
2023/12/05 10:06:27;;;;;;;;;;;0.90;99.90;;;;;;5094012;28;20051;-82
2023/12/05 10:08:56;;;;;;;28.05;17.85;;;0.90;99.90;;;;;;5107785;27;19972;-81
2023/12/05 10:11:24;;;;;;;27.00;17.50;;;0.90;99.90;;;;;;5107391;27;20051;-83
2023/12/05 10:13:50;;;;;;;26.90;17.90;;;0.90;99.90;;;;;;5089105;27;20054;-82
2023/12/05 10:16:16;;;;;;;;;;;0.90;99.90;;;;;;5095319;28;20388;-81
2023/12/05 10:18:44;;;;;;;25.63;17.27;;;0.90;99.90;;;;;;5084919;28;19931;-81
2023/12/05 10:21:10;;;;;;;25.77;17.00;;;0.90;99.90;;;;;;5111060;27;20047;-79
2023/12/05 10:23:36;;;;;;;25.48;16.92;;;1.00;99.90;;;;;;5072016;28;20043;-81
2023/12/05 10:26:03;;;;;;;26.65;16.48;;;0.90;99.90;;;;;;5089206;28;20036;-81
2023/12/05 10:28:28;;;;;;;29.52;17.60;;;1.00;99.90;;;;;;5084686;27;20475;-80
2023/12/05 10:30:54;;;;;;;28.65;18.30;;;1.00;99.90;;;;;;5051797;28;20083;-82
2023/12/05 10:33:23;;;;;;;26.88;18.17;;;1.00;99.90;;;;;;5111233;28;20039;-80
2023/12/05 10:35:49;;;;;;;27.10;18.00;;;1.00;99.90;;;;;;5095355;28;20032;-78
2023/12/05 10:38:18;;;;;;;30.75;18.65;;;0.90;99.90;;;;;;5105007;27;20402;-80
2023/12/05 10:40:54;;;;;;;30.60;19.30;;;0.90;99.90;;;;;;5076602;28;20055;-81
2023/12/05 10:43:21;;;;;;;28.15;17.92;;;0.90;99.90;;;;;;5079750;28;20042;-78
2023/12/05 10:45:48;;;;;;;28.48;18.98;;;0.90;99.90;;;;;;5105136;28;20176;-79
2023/12/05 10:48:15;;;;;;;29.65;19.73;;;1.00;99.90;;;;;;5099243;28;20035;-80
2023/12/05 10:50:41;;;;;;;;;;;0.90;99.90;;;;;;5109096;28;20112;-79
2023/12/05 10:53:07;;;;;;;29.48;19.00;;;0.90;99.90;;;;;;5110463;28;19965;-79
2023/12/05 10:55:34;;;;;;;30.92;19.33;;;0.90;99.90;;;;;;5108583;28;20043;-79
2023/12/05 10:58:01;;;;;;;29.40;18.80;;;0.90;99.90;;;;;;5094730;28;20130;-79
2023/12/05 11:00:28;;;;;;;30.00;18.40;;;0.90;99.90;;;;;;5106254;27;20391;-79
2023/12/05 11:02:55;;;;;;;29.08;18.58;;;1.00;99.90;;;;;;5075134;28;20387;-78
2023/12/05 11:05:22;;;;;;;30.27;19.15;;;1.00;99.90;;;;;;5102741;28;20141;-79
2023/12/05 11:07:48;;;;;;;27.58;18.05;;;0.90;99.90;;;;;;5139565;27;20080;-80
2023/12/05 11:10:16;;;;;;;28.63;18.10;;;1.00;99.90;;;;;;5109239;28;20042;-78
2023/12/05 11:12:44;;;;;;;27.05;17.55;;;0.90;99.90;;;;;;5089633;28;20054;-75
2023/12/05 11:15:13;;;;;;;28.15;18.27;;;1.00;99.90;;;;;;5091457;28;20067;-80
2023/12/05 11:17:41;;;;;;;29.45;17.85;;;1.00;99.90;;;;;;5081819;28;20047;-79
2023/12/05 11:20:32;;;;;;;28.80;19.08;;;1.10;99.90;;;;;;5119264;27;20188;-78
2023/12/05 11:23:36;;;;;;;29.05;19.33;;;1.00;99.90;;;;;;5098047;28;20356;-80
2023/12/05 11:26:08;;;;;;;30.23;18.75;;;1.00;99.90;;;;;;5097538;28;20403;-77
2023/12/05 11:28:34;;;;;;;30.42;19.30;;;1.10;99.90;;;;;;5097705;28;20044;-78
2023/12/05 11:31:04;;;;;;;29.35;18.48;;;1.00;99.90;;;;;;5085715;27;20059;-77
2023/12/05 11:33:44;;;;;;;31.55;19.15;;;1.00;99.90;;;;;;5105691;27;20371;-77
2023/12/05 11:36:50;;;;;;;30.55;19.88;;;1.00;99.90;;;;;;5087591;28;20039;-79
2023/12/05 11:39:16;;;;;;;31.85;20.42;;;0.90;99.90;;;;;;5096399;28;20062;-79
2023/12/05 11:42:02;;;;;;;;;;;0.90;99.90;;;;;;5081093;28;20047;-79
2023/12/05 11:44:35;;;;;;;34.78;21.25;;;1.00;99.90;;;;;;5107245;28;19968;-78
2023/12/05 11:47:03;;;;;;;36.05;22.08;;;0.90;99.90;;;;;;5082564;28;20051;-77
2023/12/05 11:49:53;;;;;;;36.72;22.00;;;0.90;99.90;;;;;;5097774;27;20057;-78
2023/12/05 11:52:20;;;;;;;30.67;19.85;;;0.90;99.90;;;;;;5116371;27;20153;-77
2023/12/05 11:54:48;;;;;;;34.03;20.95;;;0.90;99.90;;;;;;5093487;28;20046;-78
2023/12/05 11:57:22;;;;;;;34.05;20.90;;;0.80;99.90;;;;;;5107322;28;20036;-78
2023/12/05 11:59:50;;;;;;;37.38;20.83;;;0.90;99.90;;;;;;5145393;27;20132;-78
2023/12/05 12:02:44;;;;;;;34.70;20.90;;;0.90;99.90;;;;;;5079209;28;20048;-78
2023/12/05 12:05:11;;;;;;;42.17;23.75;;;0.80;99.90;;;;;;5084962;28;20077;-78
2023/12/05 12:07:44;;;;;;;35.78;21.30;;;0.90;99.90;;;;;;5102364;27;20070;-78
2023/12/05 12:10:10;;;;;;;35.90;20.88;;;0.80;99.90;;;;;;5088963;28;20045;-78
2023/12/05 12:12:36;;;;;;;31.58;19.30;;;0.80;99.90;;;;;;5094795;28;20048;-78
2023/12/05 12:15:02;;;;;;;35.90;20.95;;;0.80;99.90;;;;;;5094930;28;20128;-78
2023/12/05 12:17:27;;;;;;;36.45;21.23;;;0.80;99.90;;;;;;5100835;27;20070;-78
2023/12/05 12:19:54;;;;;;;37.13;21.17;;;0.80;99.90;;;;;;5136094;27;20047;-77
2023/12/05 12:22:20;;;;;;;37.05;22.10;;;0.70;99.90;;;;;;5116598;27;20488;-77
2023/12/05 12:24:45;;;;;;;33.55;20.77;;;0.70;99.90;;;;;;5110445;28;20092;-77
2023/12/05 12:27:11;;;;;;;34.05;20.30;;;0.70;99.90;;;;;;5105861;27;20036;-77
2023/12/05 12:29:37;;;;;;;34.47;20.20;;;0.70;99.90;;;;;;5108401;28;20051;-78
2023/12/05 12:32:10;;;;;;;32.50;19.80;;;0.70;99.90;;;;;;5088764;28;20075;-78
2023/12/05 12:34:42;;;;;;;37.35;22.48;;;0.70;99.90;;;;;;5127352;27;20051;-76
2023/12/05 12:37:11;;;;;;;37.33;21.80;;;0.70;99.90;;;;;;5093630;27;20450;-78
2023/12/05 12:39:37;;;;;;;40.85;23.70;;;0.70;99.90;;;;;;5096336;28;20043;-78